createdAt,value
2023-05-18T00:00:54.235Z,8.55
2023-05-18T00:03:23.070Z,8.44
2023-05-18T00:05:51.608Z,8.54
2023-05-18T00:08:21.766Z,8.50
2023-05-18T00:10:50.606Z,8.45
2023-05-18T00:13:19.024Z,8.44
2023-05-18T00:15:47.620Z,8.48
2023-05-18T00:18:16.118Z,8.49
2023-05-18T00:20:44.758Z,8.42
2023-05-18T00:23:16.635Z,8.33
2023-05-18T00:25:46.478Z,8.26
2023-05-18T00:28:14.868Z,8.28
2023-05-18T00:30:43.248Z,8.19
2023-05-18T00:33:11.759Z,8.24
2023-05-18T00:35:41.473Z,8.19
2023-05-18T00:38:09.915Z,8.11
2023-05-18T00:40:38.509Z,8.16
2023-05-18T00:43:08.322Z,8.05
2023-05-18T00:45:37.058Z,8.02
2023-05-18T00:48:06.239Z,7.96
2023-05-18T00:50:34.970Z,8.01
2023-05-18T00:53:03.750Z,8.11
2023-05-18T00:55:32.494Z,8.01
2023-05-18T00:58:02.573Z,8.05
2023-05-18T01:00:33.898Z,8.02
2023-05-18T01:03:02.671Z,8.07
2023-05-18T01:05:31.437Z,8.00
2023-05-18T01:08:03.103Z,8.06
2023-05-18T01:10:38.811Z,8.01
2023-05-18T01:13:13.903Z,7.90
2023-05-18T01:15:50.280Z,7.83
2023-05-18T01:18:26.323Z,7.94
2023-05-18T01:21:01.561Z,7.80
2023-05-18T01:23:56.652Z,7.75
2023-05-18T01:26:31.643Z,7.75
2023-05-18T01:29:05.660Z,7.85
2023-05-18T01:31:34.601Z,7.72
2023-05-18T01:34:04.609Z,7.79
2023-05-18T01:36:33.180Z,7.68
2023-05-18T01:39:02.713Z,7.62
2023-05-18T01:41:37.438Z,7.69
2023-05-18T01:44:15.728Z,7.69
2023-05-18T01:46:53.776Z,7.65
2023-05-18T01:49:30.608Z,7.74
2023-05-18T01:52:04.965Z,7.73
2023-05-18T01:54:34.876Z,7.55
2023-05-18T01:57:07.686Z,7.67
2023-05-18T01:59:37.970Z,7.63
2023-05-18T02:02:06.833Z,7.57
2023-05-18T02:04:37.537Z,7.50
2023-05-18T02:07:06.717Z,7.51
2023-05-18T02:09:35.547Z,7.54
2023-05-18T02:12:06.264Z,7.44
2023-05-18T02:14:34.918Z,7.45
2023-05-18T02:17:03.484Z,7.37
2023-05-18T02:19:32.042Z,7.33
2023-05-18T02:22:00.767Z,7.40
2023-05-18T02:24:29.175Z,7.31
2023-05-18T02:26:58.546Z,7.31
2023-05-18T02:29:28.477Z,7.35
2023-05-18T02:31:57.567Z,7.25
2023-05-18T02:34:27.895Z,7.17
2023-05-18T02:37:04.065Z,7.14
2023-05-18T02:39:34.089Z,7.19
2023-05-18T02:42:02.544Z,7.17
2023-05-18T02:44:32.407Z,6.96
2023-05-18T02:47:01.144Z,7.22
2023-05-18T02:49:29.624Z,7.17
2023-05-18T02:51:58.103Z,7.11
2023-05-18T02:54:26.609Z,6.89
2023-05-18T02:56:57.048Z,6.91
2023-05-18T02:59:36.264Z,6.79
2023-05-18T03:02:04.981Z,6.93
2023-05-18T03:04:33.523Z,6.87
2023-05-18T03:07:02.997Z,6.91
2023-05-18T03:09:31.694Z,6.94
2023-05-18T03:12:01.279Z,6.90
2023-05-18T03:14:30.064Z,6.88
2023-05-18T03:17:00.696Z,6.92
2023-05-18T03:19:29.187Z,6.79
2023-05-18T03:21:57.989Z,6.78
2023-05-18T03:24:30.203Z,6.84
2023-05-18T03:27:01.070Z,6.67
2023-05-18T03:29:31.480Z,6.71
2023-05-18T03:32:03.008Z,6.67
2023-05-18T03:34:31.470Z,6.51
2023-05-18T03:37:00.294Z,6.55
2023-05-18T03:39:28.866Z,6.55
2023-05-18T03:41:57.378Z,6.49
2023-05-18T03:44:26.315Z,6.46
2023-05-18T03:46:55.088Z,6.44
2023-05-18T03:49:24.883Z,6.34
2023-05-18T03:51:54.907Z,6.27
2023-05-18T03:54:24.161Z,6.36
2023-05-18T03:56:53.249Z,6.33
2023-05-18T03:59:21.662Z,6.33
2023-05-18T04:01:53.946Z,6.24
2023-05-18T04:04:27.436Z,6.22
2023-05-18T04:06:56.642Z,6.22
2023-05-18T04:09:25.754Z,6.27
2023-05-18T04:11:54.195Z,6.22
2023-05-18T04:14:24.704Z,6.25
2023-05-18T04:16:53.702Z,6.23
2023-05-18T04:19:23.146Z,6.34
2023-05-18T04:21:54.600Z,6.42
2023-05-18T04:24:23.091Z,6.44
2023-05-18T04:26:51.623Z,6.59
2023-05-18T04:29:21.285Z,6.65
2023-05-18T04:31:49.912Z,6.65
2023-05-18T04:34:19.138Z,7.05
2023-05-18T04:36:48.378Z,7.15
2023-05-18T04:39:19.042Z,7.25
2023-05-18T04:41:47.645Z,7.30
2023-05-18T04:44:18.248Z,7.48
2023-05-18T04:46:47.543Z,7.52
2023-05-18T04:49:16.604Z,7.56
2023-05-18T04:51:47.003Z,7.65
2023-05-18T04:54:16.243Z,7.68
2023-05-18T04:56:47.383Z,7.87
2023-05-18T04:59:16.094Z,7.95
2023-05-18T05:01:44.874Z,7.88
2023-05-18T05:04:13.576Z,7.97
2023-05-18T05:06:42.876Z,8.19
2023-05-18T05:09:14.078Z,8.33
2023-05-18T05:11:42.934Z,8.34
2023-05-18T05:14:12.825Z,8.52
2023-05-18T05:16:41.451Z,8.82
2023-05-18T05:19:09.958Z,8.81
2023-05-18T05:21:38.416Z,8.76
2023-05-18T05:24:08.493Z,8.85
2023-05-18T05:26:37.754Z,9.06
2023-05-18T05:29:06.109Z,9.34
2023-05-18T05:31:37.108Z,9.30
2023-05-18T05:34:05.728Z,9.26
2023-05-18T05:36:34.246Z,9.16
2023-05-18T05:39:02.888Z,9.30
2023-05-18T05:41:32.407Z,9.55
2023-05-18T05:44:01.519Z,9.65
2023-05-18T05:46:29.999Z,9.81
2023-05-18T05:49:02.171Z,9.96
2023-05-18T05:51:30.848Z,10.14
2023-05-18T05:53:59.305Z,10.04
2023-05-18T05:56:27.758Z,10.03
2023-05-18T05:58:56.220Z,10.16
2023-05-18T06:01:24.835Z,10.40
2023-05-18T06:03:53.280Z,10.77
2023-05-18T06:06:23.173Z,10.72
2023-05-18T06:08:51.664Z,10.48
2023-05-18T06:11:20.250Z,10.37
2023-05-18T06:13:49.408Z,10.49
2023-05-18T06:16:17.967Z,10.82
2023-05-18T06:18:46.503Z,10.72
2023-05-18T06:21:15.084Z,10.85
2023-05-18T06:23:45.586Z,11.18
2023-05-18T06:26:40.780Z,11.41
2023-05-18T06:29:09.556Z,11.09
2023-05-18T06:31:56.406Z,11.01
2023-05-18T06:34:37.771Z,11.47
2023-05-18T06:37:07.269Z,11.69
2023-05-18T06:39:37.338Z,11.76
2023-05-18T06:42:06.458Z,11.73
2023-05-18T06:44:36.050Z,11.61
2023-05-18T06:47:27.985Z,12.00
2023-05-18T06:49:56.502Z,11.89
2023-05-18T06:52:26.975Z,11.89
2023-05-18T06:54:57.624Z,12.17
2023-05-18T06:57:26.991Z,12.09
2023-05-18T06:59:56.046Z,12.60
2023-05-18T07:02:24.561Z,12.87
2023-05-18T07:04:53.639Z,12.98
2023-05-18T07:07:22.174Z,12.90
2023-05-18T07:09:50.824Z,13.01
2023-05-18T07:12:20.759Z,13.46
2023-05-18T07:14:49.241Z,13.54
2023-05-18T07:17:17.655Z,12.78
2023-05-18T07:19:46.088Z,12.96
2023-05-18T07:22:14.501Z,13.33
2023-05-18T07:24:43.297Z,13.53
2023-05-18T07:27:11.750Z,13.73
2023-05-18T07:29:42.180Z,13.89
2023-05-18T07:32:10.575Z,14.00
2023-05-18T07:34:39.022Z,13.85
2023-05-18T07:37:07.451Z,14.20
2023-05-18T07:39:35.835Z,13.93
2023-05-18T07:42:04.604Z,13.89
2023-05-18T07:44:33.092Z,14.65
2023-05-18T07:47:03.061Z,14.55
2023-05-18T07:49:31.821Z,14.42
2023-05-18T07:52:00.542Z,14.82
2023-05-18T07:54:29.018Z,15.33
2023-05-18T07:56:59.656Z,14.74
2023-05-18T07:59:29.072Z,14.87
2023-05-18T08:01:59.080Z,14.67
2023-05-18T08:04:29.618Z,14.85
2023-05-18T08:07:00.693Z,15.03
2023-05-18T08:09:29.193Z,15.28
2023-05-18T08:11:58.222Z,15.11
2023-05-18T08:14:26.796Z,15.17
2023-05-18T08:16:55.225Z,15.21
2023-05-18T08:19:23.862Z,15.57
2023-05-18T08:21:53.702Z,16.45
2023-05-18T08:24:22.077Z,16.35
2023-05-18T08:26:51.885Z,16.05
2023-05-18T08:29:20.432Z,16.11
2023-05-18T08:31:49.604Z,16.27
2023-05-18T08:34:18.606Z,16.22
2023-05-18T08:36:47.253Z,16.43
2023-05-18T08:39:17.067Z,16.28
2023-05-18T08:41:58.548Z,16.60
2023-05-18T08:44:32.247Z,16.67
2023-05-18T08:47:01.898Z,16.91
2023-05-18T08:49:32.302Z,16.63
2023-05-18T08:52:06.322Z,17.01
2023-05-18T08:54:38.469Z,16.89
2023-05-18T08:57:10.653Z,17.34
2023-05-18T08:59:44.819Z,17.33
2023-05-18T09:02:14.823Z,17.47
2023-05-18T09:04:45.092Z,17.44
2023-05-18T09:07:15.028Z,17.03
2023-05-18T09:09:46.873Z,17.34
2023-05-18T09:12:17.764Z,17.11
2023-05-18T09:14:47.035Z,17.36
2023-05-18T09:17:15.680Z,17.46
2023-05-18T09:19:44.718Z,17.72
2023-05-18T09:22:13.210Z,17.76
2023-05-18T09:24:41.741Z,17.69
2023-05-18T09:27:11.821Z,17.19
2023-05-18T09:29:54.174Z,16.85
2023-05-18T09:32:23.319Z,17.01
2023-05-18T09:34:52.478Z,17.70
2023-05-18T09:37:22.642Z,17.74
2023-05-18T09:40:00.833Z,18.69
2023-05-18T09:42:37.958Z,18.70
2023-05-18T09:45:17.351Z,18.65
2023-05-18T09:47:47.940Z,17.94
2023-05-18T09:50:16.467Z,18.06
2023-05-18T09:52:46.153Z,17.92
2023-05-18T09:55:16.970Z,17.74
2023-05-18T09:57:48.897Z,18.05
2023-05-18T10:00:19.516Z,18.24
2023-05-18T10:02:52.503Z,18.43
2023-05-18T10:05:22.105Z,17.77
2023-05-18T10:07:52.134Z,18.12
2023-05-18T10:10:23.025Z,18.44
2023-05-18T10:12:54.349Z,17.86
2023-05-18T10:15:24.245Z,17.33
2023-05-18T10:17:56.879Z,17.75
2023-05-18T10:20:27.011Z,17.33
2023-05-18T10:22:57.525Z,17.70
2023-05-18T10:25:28.526Z,18.05
2023-05-18T10:28:02.066Z,18.26
2023-05-18T10:30:31.638Z,18.68
2023-05-18T10:33:01.864Z,18.23
2023-05-18T10:35:31.505Z,18.33
2023-05-18T10:38:01.242Z,17.61
2023-05-18T10:40:30.587Z,17.29
2023-05-18T10:43:03.635Z,17.95
2023-05-18T10:45:35.454Z,17.87
2023-05-18T10:48:08.539Z,17.94
2023-05-18T10:50:38.605Z,17.93
2023-05-18T10:53:07.854Z,17.51
2023-05-18T10:55:36.485Z,18.23
2023-05-18T10:58:14.121Z,17.79
2023-05-18T11:00:45.805Z,18.27
2023-05-18T11:03:16.441Z,18.14
2023-05-18T11:05:45.471Z,17.90
2023-05-18T11:08:15.171Z,17.68
2023-05-18T11:10:47.226Z,17.74
2023-05-18T11:13:17.364Z,17.69
2023-05-18T11:16:09.093Z,17.73
2023-05-18T11:18:46.525Z,17.37
2023-05-18T11:21:23.276Z,17.39
2023-05-18T11:24:19.358Z,16.88
2023-05-18T11:26:49.377Z,16.98
2023-05-18T11:29:24.793Z,17.32
2023-05-18T11:31:55.597Z,17.39
2023-05-18T11:34:47.691Z,17.22
2023-05-18T11:37:17.507Z,17.15
2023-05-18T11:39:59.696Z,17.45
2023-05-18T11:42:35.120Z,17.67
2023-05-18T11:45:13.002Z,18.08
2023-05-18T11:47:42.279Z,17.66
2023-05-18T11:50:13.070Z,17.96
2023-05-18T11:52:49.317Z,17.59
2023-05-18T11:55:20.172Z,17.84
2023-05-18T11:57:52.803Z,17.85
2023-05-18T12:00:25.392Z,17.86
2023-05-18T12:02:57.007Z,17.92
2023-05-18T12:05:25.754Z,17.48
2023-05-18T12:07:54.971Z,17.57
2023-05-18T12:10:24.251Z,18.15
2023-05-18T12:12:54.460Z,18.34
2023-05-18T12:15:26.014Z,18.05
2023-05-18T12:17:54.541Z,17.92
2023-05-18T12:20:26.627Z,17.57
2023-05-18T12:22:57.038Z,17.88
2023-05-18T12:25:27.809Z,18.13
2023-05-18T12:27:57.837Z,17.83
2023-05-18T12:30:35.282Z,18.21
2023-05-18T12:33:05.307Z,18.09
2023-05-18T12:35:34.398Z,17.93
2023-05-18T12:38:03.294Z,18.12
2023-05-18T12:40:44.469Z,17.88
2023-05-18T12:43:13.775Z,18.22
2023-05-18T12:45:45.781Z,18.08
2023-05-18T12:48:15.146Z,18.17
2023-05-18T12:50:48.394Z,17.94
2023-05-18T12:53:17.894Z,17.85
2023-05-18T12:55:48.071Z,17.92
2023-05-18T12:58:19.123Z,18.37
2023-05-18T13:00:50.193Z,17.75
2023-05-18T13:03:22.301Z,17.72
2023-05-18T13:06:06.060Z,17.76
2023-05-18T13:08:36.390Z,17.80
2023-05-18T13:11:13.452Z,17.97
2023-05-18T13:14:05.383Z,18.38
2023-05-18T13:16:40.252Z,17.83
2023-05-18T13:19:11.349Z,17.64
2023-05-18T13:21:40.209Z,17.57
2023-05-18T13:24:09.143Z,17.53
2023-05-18T13:26:37.620Z,17.58
2023-05-18T13:29:08.620Z,17.82
2023-05-18T13:31:38.463Z,17.90
2023-05-18T13:34:06.964Z,17.59
2023-05-18T13:36:36.579Z,17.56
2023-05-18T13:39:07.486Z,17.65
2023-05-18T13:41:36.597Z,17.75
2023-05-18T13:44:05.620Z,17.86
2023-05-18T13:46:37.741Z,17.87
2023-05-18T13:49:08.092Z,18.02
2023-05-18T13:51:36.479Z,17.98
2023-05-18T13:54:05.670Z,18.10
2023-05-18T13:56:34.209Z,17.79
2023-05-18T13:59:03.619Z,17.85
2023-05-18T14:01:32.706Z,17.70
2023-05-18T14:04:01.335Z,17.76
2023-05-18T14:06:31.828Z,17.94
2023-05-18T14:09:00.262Z,18.07
2023-05-18T14:11:28.616Z,18.18
2023-05-18T14:13:57.042Z,17.78
2023-05-18T14:16:25.588Z,17.58
2023-05-18T14:18:54.074Z,17.53
2023-05-18T14:21:22.492Z,17.32
2023-05-18T14:23:52.297Z,17.50
2023-05-18T14:26:22.281Z,17.64
2023-05-18T14:28:50.751Z,17.56
2023-05-18T14:31:19.262Z,17.58
2023-05-18T14:33:48.328Z,17.67
2023-05-18T14:36:16.720Z,17.47
2023-05-18T14:38:46.249Z,17.68
2023-05-18T14:41:16.582Z,17.69
2023-05-18T14:43:46.475Z,17.58
2023-05-18T14:46:15.079Z,17.70
2023-05-18T14:48:43.493Z,17.71
2023-05-18T14:51:11.942Z,17.97
2023-05-18T14:53:40.406Z,17.96
2023-05-18T14:56:09.585Z,17.85
2023-05-18T14:58:39.306Z,17.87
2023-05-18T15:01:07.755Z,17.92
2023-05-18T15:03:36.201Z,18.02
2023-05-18T15:06:04.891Z,17.88
2023-05-18T15:08:33.250Z,17.97
2023-05-18T15:11:01.654Z,17.85
2023-05-18T15:13:30.183Z,17.92
2023-05-18T15:16:00.041Z,17.75
2023-05-18T15:18:28.480Z,17.80
2023-05-18T15:20:56.862Z,17.63
2023-05-18T15:23:26.333Z,17.76
2023-05-18T15:25:54.991Z,17.79
2023-05-18T15:28:23.415Z,18.00
2023-05-18T15:30:55.304Z,18.05
2023-05-18T15:33:25.026Z,17.96
2023-05-18T15:35:53.493Z,18.05
2023-05-18T15:38:21.939Z,17.98
2023-05-18T15:40:51.206Z,17.77
2023-05-18T15:43:20.269Z,17.70
2023-05-18T15:45:48.853Z,17.78
2023-05-18T15:48:17.382Z,18.02
2023-05-18T15:50:47.348Z,18.01
2023-05-18T15:53:16.075Z,18.13
2023-05-18T15:55:44.539Z,17.99
2023-05-18T15:58:14.776Z,18.04
2023-05-18T16:00:43.308Z,17.91
2023-05-18T16:03:12.576Z,17.94
2023-05-18T16:05:41.344Z,17.85
2023-05-18T16:08:11.256Z,17.71
2023-05-18T16:10:39.692Z,17.66
2023-05-18T16:13:08.304Z,17.52
2023-05-18T16:15:37.115Z,17.56
2023-05-18T16:18:06.347Z,17.78
2023-05-18T16:20:35.040Z,17.71
2023-05-18T16:23:03.983Z,17.90
2023-05-18T16:25:33.740Z,17.90
2023-05-18T16:28:02.116Z,17.86
2023-05-18T16:30:31.055Z,17.77
2023-05-18T16:32:59.999Z,17.65
2023-05-18T16:35:30.994Z,17.71
2023-05-18T16:37:59.453Z,17.75
2023-05-18T16:40:27.888Z,17.72
2023-05-18T16:42:57.681Z,17.53
2023-05-18T16:45:27.900Z,17.70
2023-05-18T16:47:56.462Z,17.50
2023-05-18T16:50:25.115Z,17.45
2023-05-18T16:52:53.643Z,17.30
2023-05-18T16:55:23.760Z,17.35
2023-05-18T16:57:52.331Z,17.31
2023-05-18T17:00:22.903Z,17.38
2023-05-18T17:02:52.763Z,17.02
2023-05-18T17:05:23.068Z,16.94
2023-05-18T17:07:53.350Z,16.94
2023-05-18T17:10:22.102Z,17.06
2023-05-18T17:12:50.563Z,17.02
2023-05-18T17:15:19.041Z,17.00
2023-05-18T17:17:48.859Z,17.03
2023-05-18T17:20:17.376Z,17.04
2023-05-18T17:22:46.020Z,17.17
2023-05-18T17:25:14.496Z,16.89
2023-05-18T17:27:42.923Z,16.82
2023-05-18T17:30:12.032Z,16.88
2023-05-18T17:32:40.714Z,16.90
2023-05-18T17:35:13.902Z,17.07
2023-05-18T17:37:42.782Z,17.05
2023-05-18T17:40:12.468Z,16.93
2023-05-18T17:42:40.894Z,16.88
2023-05-18T17:45:10.998Z,16.63
2023-05-18T17:47:41.819Z,16.61
2023-05-18T17:50:13.366Z,16.48
2023-05-18T17:52:41.797Z,16.54
2023-05-18T17:55:10.920Z,16.45
2023-05-18T17:57:45.003Z,16.44
2023-05-18T18:00:15.741Z,16.44
2023-05-18T18:02:44.211Z,16.40
2023-05-18T18:05:14.141Z,16.28
2023-05-18T18:07:42.527Z,16.17
2023-05-18T18:10:11.898Z,16.05
2023-05-18T18:12:40.630Z,16.01
2023-05-18T18:15:11.207Z,16.03
2023-05-18T18:17:39.732Z,16.00
2023-05-18T18:20:10.407Z,16.06
2023-05-18T18:22:40.288Z,16.02
2023-05-18T18:25:09.536Z,15.97
2023-05-18T18:27:37.998Z,16.03
2023-05-18T18:30:08.103Z,15.99
2023-05-18T18:32:36.833Z,15.88
2023-05-18T18:35:05.955Z,15.70
2023-05-18T18:37:34.422Z,15.70
2023-05-18T18:40:06.656Z,15.64
2023-05-18T18:42:35.128Z,15.46
2023-05-18T18:45:03.639Z,15.44
2023-05-18T18:47:32.085Z,15.31
2023-05-18T18:50:00.527Z,15.42
2023-05-18T18:52:28.864Z,15.44
2023-05-18T18:54:58.356Z,15.30
2023-05-18T18:57:28.214Z,15.15
2023-05-18T18:59:58.664Z,15.12
2023-05-18T19:02:27.156Z,15.14
2023-05-18T19:04:55.835Z,15.13
2023-05-18T19:07:24.256Z,15.05
2023-05-18T19:09:52.746Z,14.97
2023-05-18T19:12:21.223Z,14.92
2023-05-18T19:14:51.083Z,14.82
2023-05-18T19:17:19.496Z,14.86
2023-05-18T19:19:47.869Z,14.75
2023-05-18T19:22:16.514Z,14.71
2023-05-18T19:24:44.959Z,14.72
2023-05-18T19:27:13.476Z,14.60
2023-05-18T19:29:41.926Z,14.59
2023-05-18T19:32:11.957Z,14.54
2023-05-18T19:34:40.684Z,14.55
2023-05-18T19:37:09.155Z,14.42
2023-05-18T19:39:37.617Z,14.34
2023-05-18T19:42:07.024Z,14.37
2023-05-18T19:44:35.621Z,14.33
2023-05-18T19:47:04.408Z,14.21
2023-05-18T19:49:34.186Z,14.13
2023-05-18T19:52:07.911Z,14.16
2023-05-18T19:54:36.835Z,13.98
2023-05-18T19:57:05.700Z,14.10
2023-05-18T19:59:34.167Z,14.02
2023-05-18T20:02:05.142Z,13.95
2023-05-18T20:04:34.898Z,13.89
2023-05-18T20:07:03.555Z,13.89
2023-05-18T20:09:32.297Z,13.79
2023-05-18T20:12:00.905Z,13.74
2023-05-18T20:14:30.485Z,13.73
2023-05-18T20:16:59.881Z,13.59
2023-05-18T20:19:28.627Z,13.62
2023-05-18T20:21:58.570Z,13.55
2023-05-18T20:24:27.049Z,13.60
2023-05-18T20:26:55.787Z,13.56
2023-05-18T20:29:24.186Z,13.52
2023-05-18T20:31:53.525Z,13.39
2023-05-18T20:34:22.091Z,13.49
2023-05-18T20:36:50.472Z,13.46
2023-05-18T20:39:20.398Z,13.42
2023-05-18T20:41:50.423Z,13.34
2023-05-18T20:44:22.923Z,13.22
2023-05-18T20:46:53.001Z,13.35
2023-05-18T20:49:22.354Z,13.15
2023-05-18T20:51:51.277Z,13.09
2023-05-18T20:54:21.967Z,12.92
2023-05-18T20:56:51.350Z,12.91
2023-05-18T20:59:20.022Z,12.90
2023-05-18T21:01:51.008Z,12.82
2023-05-18T21:04:19.788Z,12.86
2023-05-18T21:06:49.350Z,12.77
2023-05-18T21:09:19.972Z,12.77
2023-05-18T21:11:48.369Z,12.71
2023-05-18T21:14:17.414Z,12.68
2023-05-18T21:16:47.902Z,12.72
2023-05-18T21:19:16.501Z,12.67
2023-05-18T21:21:44.977Z,12.74
2023-05-18T21:24:13.464Z,12.71
2023-05-18T21:26:43.333Z,12.68
2023-05-18T21:29:11.723Z,12.66
2023-05-18T21:31:40.228Z,12.54
2023-05-18T21:34:08.708Z,12.44
2023-05-18T21:36:37.253Z,12.38
2023-05-18T21:39:09.351Z,12.23
2023-05-18T21:41:40.269Z,12.26
2023-05-18T21:44:10.508Z,12.34
2023-05-18T21:46:39.174Z,12.18
2023-05-18T21:49:08.991Z,12.28
2023-05-18T21:51:37.680Z,12.18
2023-05-18T21:54:06.260Z,12.05
2023-05-18T21:56:36.837Z,12.15
2023-05-18T21:59:05.408Z,12.14
2023-05-18T22:01:35.351Z,12.02
2023-05-18T22:04:03.964Z,11.91
2023-05-18T22:06:32.461Z,11.92
2023-05-18T22:09:00.926Z,11.77
2023-05-18T22:11:29.469Z,11.80
2023-05-18T22:13:57.886Z,11.84
2023-05-18T22:16:26.462Z,11.63
2023-05-18T22:18:56.304Z,11.75
2023-05-18T22:21:24.734Z,11.47
2023-05-18T22:23:53.197Z,11.66
2023-05-18T22:26:21.623Z,11.55
2023-05-18T22:28:50.140Z,11.67
2023-05-18T22:31:18.538Z,11.46
2023-05-18T22:33:46.947Z,11.49
2023-05-18T22:36:18.115Z,11.35
2023-05-18T22:38:46.474Z,11.34
2023-05-18T22:41:14.818Z,11.36
2023-05-18T22:43:43.218Z,11.28
2023-05-18T22:46:12.062Z,11.25
2023-05-18T22:48:41.011Z,11.19
2023-05-18T22:51:09.891Z,11.22
2023-05-18T22:53:39.535Z,11.28
2023-05-18T22:56:08.406Z,11.20
2023-05-18T22:58:36.746Z,11.15
2023-05-18T23:01:05.146Z,11.16
2023-05-18T23:03:33.480Z,11.19
2023-05-18T23:06:03.254Z,11.24
2023-05-18T23:08:32.080Z,11.19
2023-05-18T23:11:01.806Z,11.13
2023-05-18T23:13:32.909Z,11.21
2023-05-18T23:16:02.435Z,11.07
2023-05-18T23:18:30.807Z,11.03
2023-05-18T23:20:59.197Z,11.02
2023-05-18T23:23:27.524Z,11.01
2023-05-18T23:25:56.218Z,10.94
2023-05-18T23:28:25.941Z,10.86
2023-05-18T23:30:54.356Z,10.90
2023-05-18T23:33:23.499Z,10.91
2023-05-18T23:35:52.959Z,10.84
2023-05-18T23:38:23.232Z,10.87
2023-05-18T23:40:55.456Z,10.88
2023-05-18T23:43:25.996Z,10.88
2023-05-18T23:45:55.260Z,10.94
2023-05-18T23:48:24.880Z,10.92
2023-05-18T23:50:54.430Z,10.83
2023-05-18T23:53:23.583Z,10.90
2023-05-18T23:55:52.759Z,10.80
2023-05-18T23:58:23.406Z,10.68
